sensor_id;sensor_type;location;lat;lon;timestamp;P1;durP1;ratioP1;P2;durP2;ratioP2
47365;SDS011;33105;47.964;7.982;2023-06-22T00:01:27;13.55;;;6.25;;
47365;SDS011;33105;47.964;7.982;2023-06-22T00:04:29;11.80;;;6.70;;
47365;SDS011;33105;47.964;7.982;2023-06-22T00:07:33;10.07;;;5.95;;
47365;SDS011;33105;47.964;7.982;2023-06-22T00:10:35;9.25;;;5.78;;
47365;SDS011;33105;47.964;7.982;2023-06-22T00:13:37;17.50;;;7.07;;
47365;SDS011;33105;47.964;7.982;2023-06-22T00:16:39;17.65;;;6.75;;
47365;SDS011;33105;47.964;7.982;2023-06-22T00:19:40;13.25;;;6.22;;
47365;SDS011;33105;47.964;7.982;2023-06-22T00:22:42;12.43;;;6.50;;
47365;SDS011;33105;47.964;7.982;2023-06-22T00:25:43;15.55;;;6.68;;
47365;SDS011;33105;47.964;7.982;2023-06-22T00:28:44;16.98;;;6.32;;
47365;SDS011;33105;47.964;7.982;2023-06-22T00:31:46;22.02;;;6.82;;
47365;SDS011;33105;47.964;7.982;2023-06-22T00:34:47;11.35;;;6.20;;
47365;SDS011;33105;47.964;7.982;2023-06-22T00:37:49;17.25;;;6.53;;
47365;SDS011;33105;47.964;7.982;2023-06-22T00:40:50;12.95;;;6.20;;
47365;SDS011;33105;47.964;7.982;2023-06-22T00:43:51;16.67;;;6.97;;
47365;SDS011;33105;47.964;7.982;2023-06-22T00:46:52;21.50;;;7.25;;
47365;SDS011;33105;47.964;7.982;2023-06-22T00:49:56;15.80;;;6.25;;
47365;SDS011;33105;47.964;7.982;2023-06-22T00:53:00;12.20;;;6.15;;
47365;SDS011;33105;47.964;7.982;2023-06-22T00:56:09;17.80;;;6.78;;
47365;SDS011;33105;47.964;7.982;2023-06-22T00:59:13;14.48;;;6.30;;
47365;SDS011;33105;47.964;7.982;2023-06-22T01:02:18;15.02;;;5.85;;
47365;SDS011;33105;47.964;7.982;2023-06-22T01:05:20;10.85;;;5.93;;
47365;SDS011;33105;47.964;7.982;2023-06-22T01:12:00;11.15;;;6.55;;
47365;SDS011;33105;47.964;7.982;2023-06-22T01:15:26;17.42;;;6.57;;
47365;SDS011;33105;47.964;7.982;2023-06-22T01:18:31;13.20;;;6.45;;
47365;SDS011;33105;47.964;7.982;2023-06-22T01:21:37;18.25;;;6.68;;
47365;SDS011;33105;47.964;7.982;2023-06-22T01:24:41;12.50;;;6.00;;
47365;SDS011;33105;47.964;7.982;2023-06-22T01:31:17;18.30;;;6.60;;
47365;SDS011;33105;47.964;7.982;2023-06-22T01:34:21;11.60;;;6.75;;
47365;SDS011;33105;47.964;7.982;2023-06-22T01:37:22;14.48;;;6.07;;
47365;SDS011;33105;47.964;7.982;2023-06-22T01:40:26;17.63;;;6.90;;
47365;SDS011;33105;47.964;7.982;2023-06-22T01:43:29;15.05;;;6.13;;
47365;SDS011;33105;47.964;7.982;2023-06-22T01:46:31;14.35;;;6.03;;
47365;SDS011;33105;47.964;7.982;2023-06-22T01:49:33;16.30;;;7.32;;
47365;SDS011;33105;47.964;7.982;2023-06-22T01:52:34;14.38;;;6.63;;
47365;SDS011;33105;47.964;7.982;2023-06-22T01:55:38;13.32;;;5.90;;
47365;SDS011;33105;47.964;7.982;2023-06-22T01:58:41;17.50;;;6.47;;
47365;SDS011;33105;47.964;7.982;2023-06-22T02:02:04;16.38;;;6.50;;
47365;SDS011;33105;47.964;7.982;2023-06-22T02:05:09;17.33;;;6.05;;
47365;SDS011;33105;47.964;7.982;2023-06-22T02:08:19;11.77;;;6.15;;
47365;SDS011;33105;47.964;7.982;2023-06-22T02:11:23;13.88;;;5.55;;
47365;SDS011;33105;47.964;7.982;2023-06-22T02:14:28;12.85;;;5.55;;
47365;SDS011;33105;47.964;7.982;2023-06-22T02:17:30;15.82;;;6.00;;
47365;SDS011;33105;47.964;7.982;2023-06-22T02:20:38;26.45;;;6.63;;
47365;SDS011;33105;47.964;7.982;2023-06-22T02:23:40;14.82;;;5.88;;
47365;SDS011;33105;47.964;7.982;2023-06-22T02:26:41;17.92;;;6.50;;
47365;SDS011;33105;47.964;7.982;2023-06-22T02:29:45;17.70;;;5.82;;
47365;SDS011;33105;47.964;7.982;2023-06-22T02:32:46;14.57;;;5.97;;
47365;SDS011;33105;47.964;7.982;2023-06-22T02:35:50;20.38;;;6.63;;
47365;SDS011;33105;47.964;7.982;2023-06-22T02:38:56;18.10;;;6.72;;
47365;SDS011;33105;47.964;7.982;2023-06-22T02:42:01;14.68;;;6.18;;
47365;SDS011;33105;47.964;7.982;2023-06-22T02:45:03;13.40;;;6.15;;
47365;SDS011;33105;47.964;7.982;2023-06-22T02:48:04;14.50;;;5.72;;
47365;SDS011;33105;47.964;7.982;2023-06-22T02:51:06;13.52;;;6.03;;
47365;SDS011;33105;47.964;7.982;2023-06-22T02:54:09;15.10;;;5.50;;
47365;SDS011;33105;47.964;7.982;2023-06-22T02:57:10;15.32;;;5.90;;
47365;SDS011;33105;47.964;7.982;2023-06-22T03:00:15;13.85;;;6.68;;
47365;SDS011;33105;47.964;7.982;2023-06-22T03:03:20;13.60;;;6.30;;
47365;SDS011;33105;47.964;7.982;2023-06-22T03:06:22;15.30;;;5.75;;
47365;SDS011;33105;47.964;7.982;2023-06-22T03:09:25;13.45;;;5.88;;
47365;SDS011;33105;47.964;7.982;2023-06-22T03:12:26;13.32;;;5.88;;
47365;SDS011;33105;47.964;7.982;2023-06-22T03:15:29;17.83;;;6.60;;
47365;SDS011;33105;47.964;7.982;2023-06-22T03:18:32;15.00;;;6.30;;
47365;SDS011;33105;47.964;7.982;2023-06-22T03:21:34;11.57;;;5.95;;
47365;SDS011;33105;47.964;7.982;2023-06-22T03:24:35;19.75;;;6.13;;
47365;SDS011;33105;47.964;7.982;2023-06-22T03:27:38;15.05;;;6.07;;
47365;SDS011;33105;47.964;7.982;2023-06-22T03:30:42;12.60;;;6.13;;
47365;SDS011;33105;47.964;7.982;2023-06-22T03:33:43;12.75;;;5.45;;
47365;SDS011;33105;47.964;7.982;2023-06-22T03:36:44;14.23;;;5.53;;
47365;SDS011;33105;47.964;7.982;2023-06-22T03:39:46;15.77;;;6.60;;
47365;SDS011;33105;47.964;7.982;2023-06-22T03:42:48;14.38;;;6.32;;
47365;SDS011;33105;47.964;7.982;2023-06-22T03:45:50;18.48;;;6.60;;
47365;SDS011;33105;47.964;7.982;2023-06-22T03:48:51;11.20;;;5.60;;
47365;SDS011;33105;47.964;7.982;2023-06-22T03:51:52;10.20;;;5.55;;
47365;SDS011;33105;47.964;7.982;2023-06-22T03:54:56;12.05;;;5.85;;
47365;SDS011;33105;47.964;7.982;2023-06-22T03:57:57;14.57;;;6.30;;
47365;SDS011;33105;47.964;7.982;2023-06-22T04:00:59;19.45;;;6.55;;
47365;SDS011;33105;47.964;7.982;2023-06-22T04:04:03;15.57;;;5.95;;
47365;SDS011;33105;47.964;7.982;2023-06-22T04:07:05;14.10;;;6.00;;
47365;SDS011;33105;47.964;7.982;2023-06-22T04:10:06;11.13;;;6.03;;
47365;SDS011;33105;47.964;7.982;2023-06-22T04:13:08;12.75;;;6.10;;
47365;SDS011;33105;47.964;7.982;2023-06-22T04:16:09;14.68;;;6.35;;
47365;SDS011;33105;47.964;7.982;2023-06-22T04:19:11;13.57;;;6.13;;
47365;SDS011;33105;47.964;7.982;2023-06-22T04:22:17;18.73;;;7.47;;
47365;SDS011;33105;47.964;7.982;2023-06-22T04:25:18;11.65;;;7.05;;
47365;SDS011;33105;47.964;7.982;2023-06-22T04:28:19;11.65;;;7.18;;
47365;SDS011;33105;47.964;7.982;2023-06-22T04:31:21;18.13;;;8.00;;
47365;SDS011;33105;47.964;7.982;2023-06-22T04:34:22;15.77;;;7.63;;
47365;SDS011;33105;47.964;7.982;2023-06-22T04:37:26;17.90;;;7.60;;
47365;SDS011;33105;47.964;7.982;2023-06-22T04:40:28;16.50;;;7.90;;
47365;SDS011;33105;47.964;7.982;2023-06-22T04:43:30;18.80;;;8.90;;
47365;SDS011;33105;47.964;7.982;2023-06-22T04:46:31;19.92;;;10.25;;
47365;SDS011;33105;47.964;7.982;2023-06-22T04:49:38;20.75;;;9.05;;
47365;SDS011;33105;47.964;7.982;2023-06-22T04:52:41;18.35;;;8.88;;
47365;SDS011;33105;47.964;7.982;2023-06-22T04:55:42;21.92;;;8.30;;
47365;SDS011;33105;47.964;7.982;2023-06-22T04:58:46;20.75;;;7.65;;
47365;SDS011;33105;47.964;7.982;2023-06-22T05:01:47;14.23;;;6.05;;
47365;SDS011;33105;47.964;7.982;2023-06-22T05:04:49;12.68;;;6.38;;
47365;SDS011;33105;47.964;7.982;2023-06-22T05:07:52;17.70;;;8.35;;
47365;SDS011;33105;47.964;7.982;2023-06-22T05:11:00;14.73;;;7.77;;
47365;SDS011;33105;47.964;7.982;2023-06-22T05:14:01;15.60;;;7.18;;
47365;SDS011;33105;47.964;7.982;2023-06-22T05:17:03;15.13;;;7.47;;
47365;SDS011;33105;47.964;7.982;2023-06-22T05:20:05;19.90;;;8.45;;
47365;SDS011;33105;47.964;7.982;2023-06-22T05:23:07;20.45;;;8.65;;
47365;SDS011;33105;47.964;7.982;2023-06-22T05:26:08;15.15;;;7.40;;
47365;SDS011;33105;47.964;7.982;2023-06-22T05:29:11;19.90;;;8.90;;
47365;SDS011;33105;47.964;7.982;2023-06-22T05:32:12;17.00;;;8.02;;
47365;SDS011;33105;47.964;7.982;2023-06-22T05:35:13;17.05;;;8.15;;
47365;SDS011;33105;47.964;7.982;2023-06-22T05:38:14;13.82;;;7.55;;
47365;SDS011;33105;47.964;7.982;2023-06-22T05:41:16;18.92;;;8.15;;
47365;SDS011;33105;47.964;7.982;2023-06-22T05:44:17;23.17;;;9.02;;
47365;SDS011;33105;47.964;7.982;2023-06-22T05:47:19;18.00;;;9.30;;
47365;SDS011;33105;47.964;7.982;2023-06-22T05:50:20;23.20;;;8.35;;
47365;SDS011;33105;47.964;7.982;2023-06-22T05:53:22;19.92;;;8.75;;
47365;SDS011;33105;47.964;7.982;2023-06-22T05:56:23;23.85;;;9.18;;
47365;SDS011;33105;47.964;7.982;2023-06-22T05:59:24;23.10;;;7.97;;
47365;SDS011;33105;47.964;7.982;2023-06-22T06:02:25;14.70;;;7.82;;
47365;SDS011;33105;47.964;7.982;2023-06-22T06:05:27;17.60;;;8.23;;
47365;SDS011;33105;47.964;7.982;2023-06-22T06:08:29;14.48;;;6.25;;
47365;SDS011;33105;47.964;7.982;2023-06-22T06:11:30;19.42;;;7.07;;
47365;SDS011;33105;47.964;7.982;2023-06-22T06:14:31;18.75;;;6.88;;
47365;SDS011;33105;47.964;7.982;2023-06-22T06:17:33;22.23;;;7.20;;
47365;SDS011;33105;47.964;7.982;2023-06-22T06:20:34;18.17;;;7.05;;
47365;SDS011;33105;47.964;7.982;2023-06-22T06:23:36;15.52;;;6.78;;
47365;SDS011;33105;47.964;7.982;2023-06-22T06:26:46;20.15;;;6.53;;
47365;SDS011;33105;47.964;7.982;2023-06-22T06:29:47;22.00;;;6.97;;
47365;SDS011;33105;47.964;7.982;2023-06-22T06:32:49;16.23;;;6.70;;
47365;SDS011;33105;47.964;7.982;2023-06-22T06:35:51;14.63;;;6.20;;
47365;SDS011;33105;47.964;7.982;2023-06-22T06:38:52;23.80;;;8.07;;
47365;SDS011;33105;47.964;7.982;2023-06-22T06:41:53;22.33;;;7.63;;
47365;SDS011;33105;47.964;7.982;2023-06-22T06:44:55;17.50;;;7.18;;
47365;SDS011;33105;47.964;7.982;2023-06-22T06:47:56;17.50;;;6.95;;
47365;SDS011;33105;47.964;7.982;2023-06-22T06:50:57;17.73;;;8.27;;
47365;SDS011;33105;47.964;7.982;2023-06-22T06:53:59;24.13;;;9.13;;
47365;SDS011;33105;47.964;7.982;2023-06-22T06:57:00;22.42;;;8.60;;
47365;SDS011;33105;47.964;7.982;2023-06-22T07:00:04;12.18;;;8.00;;
47365;SDS011;33105;47.964;7.982;2023-06-22T07:03:10;18.67;;;8.63;;
47365;SDS011;33105;47.964;7.982;2023-06-22T07:06:13;19.40;;;9.45;;
47365;SDS011;33105;47.964;7.982;2023-06-22T07:09:14;17.77;;;8.95;;
47365;SDS011;33105;47.964;7.982;2023-06-22T07:12:15;14.05;;;7.95;;
47365;SDS011;33105;47.964;7.982;2023-06-22T07:15:17;15.32;;;8.68;;
47365;SDS011;33105;47.964;7.982;2023-06-22T07:18:18;19.48;;;8.68;;
47365;SDS011;33105;47.964;7.982;2023-06-22T07:21:19;24.17;;;9.73;;
47365;SDS011;33105;47.964;7.982;2023-06-22T07:24:21;20.55;;;7.97;;
47365;SDS011;33105;47.964;7.982;2023-06-22T07:27:23;18.27;;;7.90;;
47365;SDS011;33105;47.964;7.982;2023-06-22T07:30:24;15.23;;;7.10;;
47365;SDS011;33105;47.964;7.982;2023-06-22T07:33:26;18.65;;;7.25;;
47365;SDS011;33105;47.964;7.982;2023-06-22T07:36:28;15.27;;;7.25;;
47365;SDS011;33105;47.964;7.982;2023-06-22T07:39:31;19.35;;;7.78;;
47365;SDS011;33105;47.964;7.982;2023-06-22T07:42:32;12.45;;;7.10;;
47365;SDS011;33105;47.964;7.982;2023-06-22T07:45:37;16.05;;;8.52;;
47365;SDS011;33105;47.964;7.982;2023-06-22T07:48:40;17.38;;;6.50;;
47365;SDS011;33105;47.964;7.982;2023-06-22T07:51:42;20.77;;;7.72;;
47365;SDS011;33105;47.964;7.982;2023-06-22T07:54:44;14.55;;;6.82;;
47365;SDS011;33105;47.964;7.982;2023-06-22T07:57:46;15.68;;;6.97;;
47365;SDS011;33105;47.964;7.982;2023-06-22T08:00:49;14.93;;;7.07;;
47365;SDS011;33105;47.964;7.982;2023-06-22T08:03:51;14.05;;;6.70;;
47365;SDS011;33105;47.964;7.982;2023-06-22T08:06:52;12.85;;;6.55;;
47365;SDS011;33105;47.964;7.982;2023-06-22T08:09:53;17.83;;;6.55;;
47365;SDS011;33105;47.964;7.982;2023-06-22T08:12:55;9.75;;;5.53;;
47365;SDS011;33105;47.964;7.982;2023-06-22T08:15:56;18.10;;;7.15;;
47365;SDS011;33105;47.964;7.982;2023-06-22T08:18:57;17.67;;;6.38;;
47365;SDS011;33105;47.964;7.982;2023-06-22T08:21:58;17.35;;;5.93;;
47365;SDS011;33105;47.964;7.982;2023-06-22T08:24:59;12.80;;;6.53;;
47365;SDS011;33105;47.964;7.982;2023-06-22T08:28:01;16.02;;;5.93;;
47365;SDS011;33105;47.964;7.982;2023-06-22T08:31:03;12.57;;;6.18;;
47365;SDS011;33105;47.964;7.982;2023-06-22T08:34:05;17.23;;;6.45;;
47365;SDS011;33105;47.964;7.982;2023-06-22T08:37:06;16.20;;;6.57;;
47365;SDS011;33105;47.964;7.982;2023-06-22T08:40:08;13.55;;;6.63;;
47365;SDS011;33105;47.964;7.982;2023-06-22T08:43:10;11.40;;;5.95;;
47365;SDS011;33105;47.964;7.982;2023-06-22T08:46:12;17.23;;;6.00;;
47365;SDS011;33105;47.964;7.982;2023-06-22T08:49:13;18.67;;;6.38;;
47365;SDS011;33105;47.964;7.982;2023-06-22T08:52:14;15.38;;;6.53;;
47365;SDS011;33105;47.964;7.982;2023-06-22T08:55:16;15.85;;;6.13;;
47365;SDS011;33105;47.964;7.982;2023-06-22T08:58:17;14.40;;;6.32;;
47365;SDS011;33105;47.964;7.982;2023-06-22T09:01:20;18.77;;;5.85;;
47365;SDS011;33105;47.964;7.982;2023-06-22T09:04:21;18.92;;;5.93;;
47365;SDS011;33105;47.964;7.982;2023-06-22T09:07:23;21.23;;;5.95;;
47365;SDS011;33105;47.964;7.982;2023-06-22T09:10:25;14.85;;;5.88;;
47365;SDS011;33105;47.964;7.982;2023-06-22T09:13:29;16.30;;;5.90;;
47365;SDS011;33105;47.964;7.982;2023-06-22T09:16:31;11.77;;;5.53;;
47365;SDS011;33105;47.964;7.982;2023-06-22T09:19:33;17.65;;;6.00;;
47365;SDS011;33105;47.964;7.982;2023-06-22T09:22:34;14.77;;;6.10;;
47365;SDS011;33105;47.964;7.982;2023-06-22T09:25:35;18.65;;;6.03;;
47365;SDS011;33105;47.964;7.982;2023-06-22T09:28:36;15.98;;;6.28;;
47365;SDS011;33105;47.964;7.982;2023-06-22T09:31:38;14.55;;;5.65;;
47365;SDS011;33105;47.964;7.982;2023-06-22T09:34:39;18.35;;;5.88;;
47365;SDS011;33105;47.964;7.982;2023-06-22T09:37:40;16.15;;;5.53;;
47365;SDS011;33105;47.964;7.982;2023-06-22T09:40:41;16.25;;;6.03;;
47365;SDS011;33105;47.964;7.982;2023-06-22T09:43:43;16.05;;;5.40;;
47365;SDS011;33105;47.964;7.982;2023-06-22T09:46:44;14.40;;;5.38;;
47365;SDS011;33105;47.964;7.982;2023-06-22T09:49:45;16.27;;;5.88;;
47365;SDS011;33105;47.964;7.982;2023-06-22T09:52:46;13.93;;;5.45;;
47365;SDS011;33105;47.964;7.982;2023-06-22T09:55:51;15.25;;;5.75;;
47365;SDS011;33105;47.964;7.982;2023-06-22T09:58:52;16.67;;;5.70;;
47365;SDS011;33105;47.964;7.982;2023-06-22T10:01:53;20.70;;;5.93;;
47365;SDS011;33105;47.964;7.982;2023-06-22T10:04:55;21.23;;;6.13;;
47365;SDS011;33105;47.964;7.982;2023-06-22T10:07:56;14.00;;;5.15;;
47365;SDS011;33105;47.964;7.982;2023-06-22T10:10:57;14.48;;;5.47;;
47365;SDS011;33105;47.964;7.982;2023-06-22T10:13:58;15.07;;;5.95;;
47365;SDS011;33105;47.964;7.982;2023-06-22T10:17:01;16.35;;;5.55;;
47365;SDS011;33105;47.964;7.982;2023-06-22T10:20:03;23.38;;;6.25;;
47365;SDS011;33105;47.964;7.982;2023-06-22T10:23:11;14.98;;;5.18;;
47365;SDS011;33105;47.964;7.982;2023-06-22T10:26:13;18.38;;;6.05;;
47365;SDS011;33105;47.964;7.982;2023-06-22T10:29:14;19.10;;;6.13;;
47365;SDS011;33105;47.964;7.982;2023-06-22T10:32:15;19.90;;;5.35;;
47365;SDS011;33105;47.964;7.982;2023-06-22T10:35:16;18.27;;;5.20;;
47365;SDS011;33105;47.964;7.982;2023-06-22T10:38:17;19.38;;;5.47;;
47365;SDS011;33105;47.964;7.982;2023-06-22T10:41:19;17.75;;;5.03;;
47365;SDS011;33105;47.964;7.982;2023-06-22T10:44:20;17.25;;;5.00;;
47365;SDS011;33105;47.964;7.982;2023-06-22T10:47:21;15.57;;;4.93;;
47365;SDS011;33105;47.964;7.982;2023-06-22T10:50:22;14.30;;;5.15;;
47365;SDS011;33105;47.964;7.982;2023-06-22T10:53:25;17.75;;;4.90;;
47365;SDS011;33105;47.964;7.982;2023-06-22T10:56:26;14.95;;;5.22;;
47365;SDS011;33105;47.964;7.982;2023-06-22T10:59:27;15.70;;;5.38;;
47365;SDS011;33105;47.964;7.982;2023-06-22T11:02:30;13.40;;;6.05;;
47365;SDS011;33105;47.964;7.982;2023-06-22T11:05:31;13.88;;;6.03;;
47365;SDS011;33105;47.964;7.982;2023-06-22T11:08:33;12.73;;;5.78;;
47365;SDS011;33105;47.964;7.982;2023-06-22T11:11:34;13.50;;;5.78;;
47365;SDS011;33105;47.964;7.982;2023-06-22T11:14:35;19.65;;;6.60;;
47365;SDS011;33105;47.964;7.982;2023-06-22T11:17:36;16.50;;;6.30;;
47365;SDS011;33105;47.964;7.982;2023-06-22T11:20:37;14.23;;;5.97;;
47365;SDS011;33105;47.964;7.982;2023-06-22T11:23:42;13.10;;;5.70;;
47365;SDS011;33105;47.964;7.982;2023-06-22T11:26:43;13.02;;;5.70;;
47365;SDS011;33105;47.964;7.982;2023-06-22T11:29:44;18.10;;;6.53;;
47365;SDS011;33105;47.964;7.982;2023-06-22T11:32:46;19.48;;;5.32;;
47365;SDS011;33105;47.964;7.982;2023-06-22T11:35:47;20.63;;;5.43;;
47365;SDS011;33105;47.964;7.982;2023-06-22T11:38:48;14.02;;;4.53;;
47365;SDS011;33105;47.964;7.982;2023-06-22T11:41:49;21.20;;;3.97;;
47365;SDS011;33105;47.964;7.982;2023-06-22T11:44:51;17.23;;;3.58;;
47365;SDS011;33105;47.964;7.982;2023-06-22T11:47:52;12.18;;;3.40;;
47365;SDS011;33105;47.964;7.982;2023-06-22T11:50:54;17.45;;;3.88;;
47365;SDS011;33105;47.964;7.982;2023-06-22T11:53:56;21.13;;;4.45;;
47365;SDS011;33105;47.964;7.982;2023-06-22T11:56:57;13.02;;;3.55;;
47365;SDS011;33105;47.964;7.982;2023-06-22T11:59:58;22.05;;;3.72;;
47365;SDS011;33105;47.964;7.982;2023-06-22T12:03:00;24.55;;;4.18;;
47365;SDS011;33105;47.964;7.982;2023-06-22T12:06:01;20.60;;;4.30;;
47365;SDS011;33105;47.964;7.982;2023-06-22T12:09:02;13.45;;;4.05;;
47365;SDS011;33105;47.964;7.982;2023-06-22T12:12:05;15.32;;;3.70;;
47365;SDS011;33105;47.964;7.982;2023-06-22T12:15:07;22.52;;;4.00;;
47365;SDS011;33105;47.964;7.982;2023-06-22T12:18:10;14.02;;;3.80;;
47365;SDS011;33105;47.964;7.982;2023-06-22T12:21:11;19.42;;;4.03;;
47365;SDS011;33105;47.964;7.982;2023-06-22T12:24:12;24.15;;;4.13;;
47365;SDS011;33105;47.964;7.982;2023-06-22T12:27:14;16.88;;;3.83;;
47365;SDS011;33105;47.964;7.982;2023-06-22T12:30:18;14.90;;;3.78;;
47365;SDS011;33105;47.964;7.982;2023-06-22T12:33:20;19.48;;;3.85;;
47365;SDS011;33105;47.964;7.982;2023-06-22T12:36:21;16.02;;;3.65;;
47365;SDS011;33105;47.964;7.982;2023-06-22T12:39:23;15.13;;;4.15;;
47365;SDS011;33105;47.964;7.982;2023-06-22T12:42:24;24.23;;;5.32;;
47365;SDS011;33105;47.964;7.982;2023-06-22T12:45:27;20.50;;;6.53;;
47365;SDS011;33105;47.964;7.982;2023-06-22T12:48:29;18.23;;;6.60;;
47365;SDS011;33105;47.964;7.982;2023-06-22T12:51:31;15.35;;;6.28;;
47365;SDS011;33105;47.964;7.982;2023-06-22T12:54:32;13.73;;;5.68;;
47365;SDS011;33105;47.964;7.982;2023-06-22T12:57:33;24.75;;;6.50;;
47365;SDS011;33105;47.964;7.982;2023-06-22T13:00:35;20.30;;;6.22;;
47365;SDS011;33105;47.964;7.982;2023-06-22T13:03:36;15.13;;;6.07;;
47365;SDS011;33105;47.964;7.982;2023-06-22T13:06:37;17.70;;;5.60;;
47365;SDS011;33105;47.964;7.982;2023-06-22T13:09:39;29.35;;;5.53;;
47365;SDS011;33105;47.964;7.982;2023-06-22T13:12:40;19.00;;;5.93;;
47365;SDS011;33105;47.964;7.982;2023-06-22T13:15:41;16.42;;;5.60;;
47365;SDS011;33105;47.964;7.982;2023-06-22T13:18:43;15.98;;;5.35;;
47365;SDS011;33105;47.964;7.982;2023-06-22T13:21:44;25.35;;;5.65;;
47365;SDS011;33105;47.964;7.982;2023-06-22T13:24:45;14.35;;;4.88;;
47365;SDS011;33105;47.964;7.982;2023-06-22T13:27:49;21.33;;;4.95;;
47365;SDS011;33105;47.964;7.982;2023-06-22T13:30:51;19.42;;;5.30;;
47365;SDS011;33105;47.964;7.982;2023-06-22T13:33:52;17.70;;;5.20;;
47365;SDS011;33105;47.964;7.982;2023-06-22T13:36:53;14.88;;;4.72;;
47365;SDS011;33105;47.964;7.982;2023-06-22T13:39:54;21.98;;;5.85;;
47365;SDS011;33105;47.964;7.982;2023-06-22T13:42:57;23.50;;;5.53;;
47365;SDS011;33105;47.964;7.982;2023-06-22T13:45:58;18.73;;;5.20;;
47365;SDS011;33105;47.964;7.982;2023-06-22T13:48:59;17.80;;;6.03;;
47365;SDS011;33105;47.964;7.982;2023-06-22T13:52:01;21.13;;;6.68;;
47365;SDS011;33105;47.964;7.982;2023-06-22T13:55:04;15.65;;;6.22;;
47365;SDS011;33105;47.964;7.982;2023-06-22T13:58:07;18.92;;;6.00;;
47365;SDS011;33105;47.964;7.982;2023-06-22T14:01:08;17.23;;;5.47;;
47365;SDS011;33105;47.964;7.982;2023-06-22T14:04:10;18.20;;;5.63;;
47365;SDS011;33105;47.964;7.982;2023-06-22T14:07:11;20.13;;;5.50;;
47365;SDS011;33105;47.964;7.982;2023-06-22T14:10:12;20.13;;;5.57;;
47365;SDS011;33105;47.964;7.982;2023-06-22T14:13:13;18.85;;;5.70;;
47365;SDS011;33105;47.964;7.982;2023-06-22T14:16:15;20.45;;;5.78;;
47365;SDS011;33105;47.964;7.982;2023-06-22T14:19:19;16.05;;;5.32;;
47365;SDS011;33105;47.964;7.982;2023-06-22T14:22:20;17.58;;;5.65;;
47365;SDS011;33105;47.964;7.982;2023-06-22T14:25:22;13.90;;;6.15;;
47365;SDS011;33105;47.964;7.982;2023-06-22T14:28:23;21.80;;;5.60;;
47365;SDS011;33105;47.964;7.982;2023-06-22T14:31:25;17.77;;;5.32;;
47365;SDS011;33105;47.964;7.982;2023-06-22T14:34:26;18.05;;;5.07;;
47365;SDS011;33105;47.964;7.982;2023-06-22T14:37:27;13.63;;;5.55;;
47365;SDS011;33105;47.964;7.982;2023-06-22T14:40:28;20.08;;;5.28;;
47365;SDS011;33105;47.964;7.982;2023-06-22T14:43:29;21.45;;;5.55;;
47365;SDS011;33105;47.964;7.982;2023-06-22T14:46:31;15.43;;;5.65;;
47365;SDS011;33105;47.964;7.982;2023-06-22T14:49:32;20.77;;;6.00;;
47365;SDS011;33105;47.964;7.982;2023-06-22T14:52:33;14.55;;;6.13;;
47365;SDS011;33105;47.964;7.982;2023-06-22T14:55:34;28.13;;;6.00;;
47365;SDS011;33105;47.964;7.982;2023-06-22T14:58:36;21.27;;;6.50;;
47365;SDS011;33105;47.964;7.982;2023-06-22T15:01:37;20.20;;;6.40;;
47365;SDS011;33105;47.964;7.982;2023-06-22T15:04:38;13.18;;;4.43;;
47365;SDS011;33105;47.964;7.982;2023-06-22T15:07:40;10.75;;;4.03;;
47365;SDS011;33105;47.964;7.982;2023-06-22T15:10:41;16.13;;;4.10;;
47365;SDS011;33105;47.964;7.982;2023-06-22T15:13:42;13.05;;;4.13;;
47365;SDS011;33105;47.964;7.982;2023-06-22T15:16:44;13.57;;;3.85;;
47365;SDS011;33105;47.964;7.982;2023-06-22T15:19:45;12.00;;;3.42;;
47365;SDS011;33105;47.964;7.982;2023-06-22T15:22:46;10.38;;;3.40;;
47365;SDS011;33105;47.964;7.982;2023-06-22T15:25:47;13.13;;;3.28;;
47365;SDS011;33105;47.964;7.982;2023-06-22T15:28:48;17.40;;;3.78;;
47365;SDS011;33105;47.964;7.982;2023-06-22T15:31:51;18.58;;;3.42;;
47365;SDS011;33105;47.964;7.982;2023-06-22T15:34:52;9.90;;;3.53;;
47365;SDS011;33105;47.964;7.982;2023-06-22T15:37:54;12.07;;;3.83;;
47365;SDS011;33105;47.964;7.982;2023-06-22T15:40:56;13.68;;;3.22;;
47365;SDS011;33105;47.964;7.982;2023-06-22T15:43:57;8.23;;;3.30;;
47365;SDS011;33105;47.964;7.982;2023-06-22T15:46:58;9.30;;;3.50;;
47365;SDS011;33105;47.964;7.982;2023-06-22T15:49:59;11.32;;;3.50;;
47365;SDS011;33105;47.964;7.982;2023-06-22T15:53:00;13.50;;;3.10;;
47365;SDS011;33105;47.964;7.982;2023-06-22T15:56:02;8.55;;;2.97;;
47365;SDS011;33105;47.964;7.982;2023-06-22T15:59:03;12.80;;;3.22;;
47365;SDS011;33105;47.964;7.982;2023-06-22T16:02:05;12.13;;;3.42;;
47365;SDS011;33105;47.964;7.982;2023-06-22T16:05:07;11.82;;;3.05;;
47365;SDS011;33105;47.964;7.982;2023-06-22T16:08:10;11.35;;;3.28;;
47365;SDS011;33105;47.964;7.982;2023-06-22T16:11:14;12.63;;;3.50;;
47365;SDS011;33105;47.964;7.982;2023-06-22T16:14:16;8.93;;;3.00;;
47365;SDS011;33105;47.964;7.982;2023-06-22T16:17:17;12.02;;;2.78;;
47365;SDS011;33105;47.964;7.982;2023-06-22T16:20:18;10.25;;;3.33;;
47365;SDS011;33105;47.964;7.982;2023-06-22T16:23:22;10.13;;;2.90;;
47365;SDS011;33105;47.964;7.982;2023-06-22T16:26:23;8.73;;;2.90;;
47365;SDS011;33105;47.964;7.982;2023-06-22T16:29:24;11.57;;;3.15;;
47365;SDS011;33105;47.964;7.982;2023-06-22T16:32:26;10.57;;;3.22;;
47365;SDS011;33105;47.964;7.982;2023-06-22T16:35:27;9.60;;;3.28;;
47365;SDS011;33105;47.964;7.982;2023-06-22T16:38:37;13.52;;;4.15;;
47365;SDS011;33105;47.964;7.982;2023-06-22T16:41:38;14.90;;;3.80;;
47365;SDS011;33105;47.964;7.982;2023-06-22T16:44:40;13.02;;;3.30;;
47365;SDS011;33105;47.964;7.982;2023-06-22T16:47:41;11.55;;;3.35;;
47365;SDS011;33105;47.964;7.982;2023-06-22T16:50:43;8.75;;;2.97;;
47365;SDS011;33105;47.964;7.982;2023-06-22T16:53:44;8.05;;;3.13;;
47365;SDS011;33105;47.964;7.982;2023-06-22T16:56:47;14.07;;;3.20;;
47365;SDS011;33105;47.964;7.982;2023-06-22T16:59:50;7.03;;;3.28;;
47365;SDS011;33105;47.964;7.982;2023-06-22T17:02:53;12.05;;;3.10;;
47365;SDS011;33105;47.964;7.982;2023-06-22T17:05:56;14.70;;;2.85;;
47365;SDS011;33105;47.964;7.982;2023-06-22T17:09:02;7.40;;;3.13;;
47365;SDS011;33105;47.964;7.982;2023-06-22T17:12:05;8.93;;;3.03;;
47365;SDS011;33105;47.964;7.982;2023-06-22T17:15:08;9.45;;;3.00;;
47365;SDS011;33105;47.964;7.982;2023-06-22T17:18:10;12.35;;;3.22;;
47365;SDS011;33105;47.964;7.982;2023-06-22T17:21:20;11.70;;;3.22;;
47365;SDS011;33105;47.964;7.982;2023-06-22T17:24:22;7.82;;;3.00;;
47365;SDS011;33105;47.964;7.982;2023-06-22T17:27:28;9.82;;;3.03;;
47365;SDS011;33105;47.964;7.982;2023-06-22T17:30:30;12.40;;;3.47;;
47365;SDS011;33105;47.964;7.982;2023-06-22T17:33:31;12.07;;;3.45;;
47365;SDS011;33105;47.964;7.982;2023-06-22T17:36:32;8.95;;;2.85;;
47365;SDS011;33105;47.964;7.982;2023-06-22T17:40:01;12.57;;;3.63;;
47365;SDS011;33105;47.964;7.982;2023-06-22T17:43:03;6.10;;;3.42;;
47365;SDS011;33105;47.964;7.982;2023-06-22T17:46:08;8.43;;;2.90;;
47365;SDS011;33105;47.964;7.982;2023-06-22T17:49:11;11.18;;;3.40;;
47365;SDS011;33105;47.964;7.982;2023-06-22T17:52:17;9.60;;;3.42;;
47365;SDS011;33105;47.964;7.982;2023-06-22T17:55:19;10.07;;;3.05;;
47365;SDS011;33105;47.964;7.982;2023-06-22T17:58:24;9.80;;;3.25;;
47365;SDS011;33105;47.964;7.982;2023-06-22T18:01:32;8.27;;;3.00;;
47365;SDS011;33105;47.964;7.982;2023-06-22T18:04:40;13.45;;;1.88;;
47365;SDS011;33105;47.964;7.982;2023-06-22T18:07:41;6.80;;;1.48;;
47365;SDS011;33105;47.964;7.982;2023-06-22T18:10:43;9.00;;;1.10;;